Time;durP1;ratioP1;P1;durP2;ratioP2;P2;SDS_P1;SDS_P2;PMS_P1;PMS_P2;Temp;Humidity;BMP_temperature;BMP_pressure;BME280_temperature;BME280_humidity;BME280_pressure;Samples;Min_cycle;Max_cycle;Signal;HPM_P1;HPM_P2
2022/11/07 00:01:20;;;;;;;50.50;29.80;;;;;;;8.76;71.73;100147.92;1727332;83;20917;-41
2022/11/07 00:03:48;;;;;;;51.13;30.82;;;;;;;8.85;71.39;100150.56;1727649;83;20957;-41
2022/11/07 00:06:17;;;;;;;55.17;30.95;;;;;;;8.85;71.21;100158.12;1727389;83;20941;-41
2022/11/07 00:08:45;;;;;;;49.50;30.77;;;;;;;8.87;71.28;100159.91;1727491;83;20993;-41
2022/11/07 00:11:11;;;;;;;51.40;31.25;;;;;;;8.89;71.09;100162.30;1727574;83;21770;-41
2022/11/07 00:13:40;;;;;;;46.95;29.45;;;;;;;8.89;70.98;100159.04;1727266;83;20981;-41
2022/11/07 00:16:09;;;;;;;46.08;28.23;;;;;;;8.85;70.94;100152.71;1727522;83;21613;-41
2022/11/07 00:18:37;;;;;;;50.75;29.20;;;;;;;8.86;71.00;100150.80;1727482;83;21001;-41
2022/11/07 00:21:06;;;;;;;49.20;29.57;;;;;;;8.89;70.91;100149.58;1729334;82;21027;-41
2022/11/07 00:23:35;;;;;;;50.98;30.85;;;;;;;8.90;71.11;100152.52;1736830;82;21568;-41
2022/11/07 00:26:09;;;;;;;47.95;28.80;;;;;;;8.91;70.93;100147.31;1736679;82;21020;-41
2022/11/07 00:28:42;;;;;;;49.48;29.90;;;;;;;8.88;70.98;100145.84;1736862;82;20984;-41
2022/11/07 00:31:11;;;;;;;49.98;30.30;;;;;;;8.84;71.06;100140.86;1736648;82;20987;-41
2022/11/07 00:33:39;;;;;;;45.40;28.02;;;;;;;8.79;71.20;100139.14;1736869;82;21087;-41
2022/11/07 00:36:09;;;;;;;46.63;27.47;;;;;;;8.84;71.31;100142.21;1736892;82;21036;-41
2022/11/07 00:38:38;;;;;;;46.77;29.20;;;;;;;8.88;71.08;100134.47;1736756;82;20972;-41
2022/11/07 00:41:06;;;;;;;49.63;30.10;;;;;;;8.87;71.04;100138.28;1736805;82;20940;-41
2022/11/07 00:43:34;;;;;;;48.20;30.37;;;;;;;8.83;71.10;100129.25;1737171;82;21031;-41
2022/11/07 00:46:04;;;;;;;49.83;30.20;;;;;;;8.81;71.35;100133.42;1736832;82;21029;-41
2022/11/07 00:48:32;;;;;;;45.98;29.05;;;;;;;8.78;71.40;100123.24;1736921;82;21048;-41
2022/11/07 00:51:16;;;;;;;44.27;28.10;;;;;;;8.75;71.51;100128.76;1736844;82;21033;-41
2022/11/07 00:53:44;;;;;;;49.53;28.45;;;;;;;8.78;71.51;100124.04;1736829;82;20976;-41
2022/11/07 00:56:13;;;;;;;45.35;29.42;;;;;;;8.85;71.38;100123.53;1736655;82;21593;-41
2022/11/07 00:58:41;;;;;;;50.52;29.10;;;;;;;8.86;71.37;100120.47;1736822;82;21058;-41
2022/11/07 01:01:21;;;;;;;48.48;29.60;;;;;;;8.86;71.36;100121.06;1736844;82;21148;-41
2022/11/07 01:06:36;;;;;;;49.70;29.15;;;;;;;8.78;71.74;100123.24;1736831;82;21048;-41
2022/11/07 01:09:05;;;;;;;44.43;28.13;;;;;;;8.77;71.75;100115.69;1737091;82;21046;-41
2022/11/07 01:11:35;;;;;;;43.20;26.73;;;;;;;8.77;71.68;100110.84;1736806;82;21016;-41
2022/11/07 01:14:02;;;;;;;46.45;28.62;;;;;;;8.78;71.66;100109.16;1736885;82;21235;-41
2022/11/07 01:16:30;;;;;;;43.10;27.48;;;;;;;8.76;71.75;100105.22;1737089;82;20971;-41
2022/11/07 01:18:57;;;;;;;45.85;28.67;;;;;;;8.70;71.97;100102.71;1736717;82;21030;-41
2022/11/07 01:21:24;;;;;;;52.88;30.32;;;;;;;8.72;72.14;100105.06;1736813;81;21029;-41
2022/11/07 01:23:52;;;;;;;45.30;28.50;;;;;;;8.69;72.12;100101.68;1736810;82;21031;-41
2022/11/07 01:26:20;;;;;;;49.08;28.17;;;;;;;8.67;72.17;100108.75;1748094;81;21008;-41
2022/11/07 01:28:47;;;;;;;47.23;28.92;;;;;;;8.71;72.08;100097.52;1767275;81;21792;-41
2022/11/07 01:31:15;;;;;;;44.60;28.05;;;;;;;8.76;71.93;100103.31;1767357;81;21048;-41
2022/11/07 01:33:42;;;;;;;46.28;28.38;;;;;;;8.78;71.98;100097.00;1767155;81;21016;-41
2022/11/07 01:36:12;;;;;;;43.92;27.85;;;;;;;8.73;72.00;100089.88;1767250;81;21043;-41
2022/11/07 01:38:42;;;;;;;45.00;29.40;;;;;;;8.72;72.15;100088.84;1767574;81;21176;-41
2022/11/07 01:41:20;;;;;;;47.33;30.30;;;;;;;8.68;72.21;100091.42;1767373;81;20996;-41
2022/11/07 01:43:52;;;;;;;40.38;26.35;;;;;;;8.62;72.27;100091.94;1767364;81;21000;-41
2022/11/07 01:46:20;;;;;;;44.50;27.90;;;;;;;8.57;72.50;100093.48;1767353;81;21044;-41
2022/11/07 01:48:53;;;;;;;41.18;27.80;;;;;;;8.63;72.55;100084.06;1767639;81;21545;-41
2022/11/07 01:51:19;;;;;;;49.35;28.57;;;;;;;8.66;72.57;100076.67;1765645;81;21252;-41
2022/11/07 01:53:46;;;;;;;42.50;28.42;;;;;;;8.63;72.55;100074.05;1767191;81;20964;-41
2022/11/07 01:56:15;;;;;;;47.55;30.57;;;;;;;8.62;72.56;100074.36;1767214;81;21015;-41
2022/11/07 01:58:44;;;;;;;43.17;27.20;;;;;;;8.56;72.71;100064.89;1767294;81;21033;-41
2022/11/07 02:01:11;;;;;;;42.88;27.35;;;;;;;8.53;72.78;100062.27;1767190;81;21497;-41
2022/11/07 02:03:38;;;;;;;46.23;28.20;;;;;;;8.57;72.76;100058.34;1767342;81;22040;-41
2022/11/07 02:06:26;;;;;;;40.83;27.90;;;;;;;8.62;72.68;100054.09;1761486;81;21024;-41
2022/11/07 02:08:52;;;;;;;45.03;28.75;;;;;;;8.60;72.72;100050.95;1746345;81;21008;-41
2022/11/07 02:11:19;;;;;;;42.50;27.22;;;;;;;8.54;72.89;100052.26;1767287;81;21010;-41
2022/11/07 02:13:46;;;;;;;40.45;28.62;;;;;;;8.55;73.02;100058.69;1767270;81;21031;-41
2022/11/07 02:16:13;;;;;;;45.15;26.65;;;;;;;8.53;72.86;100052.02;1767318;81;21141;-41
2022/11/07 02:18:41;;;;;;;47.65;27.15;;;;;;;8.55;72.93;100051.14;1767214;81;21513;-41
2022/11/07 02:21:34;;;;;;;39.23;25.92;;;;;;;8.60;72.72;100053.66;1767331;81;20964;-41
2022/11/07 02:24:11;;;;;;;44.53;27.35;;;;;;;8.61;72.72;100053.89;1767041;81;21004;-41
2022/11/07 02:26:38;;;;;;;42.90;27.35;;;;;;;8.57;72.75;100044.83;1766985;81;21028;-41
2022/11/07 02:29:08;;;;;;;40.58;28.52;;;;;;;8.56;72.91;100050.03;1767202;81;21020;-41
2022/11/07 02:31:35;;;;;;;44.70;26.93;;;;;;;8.57;72.86;100049.68;1767184;81;21028;-41
2022/11/07 02:34:02;;;;;;;39.45;25.77;;;;;;;8.61;72.73;100051.19;1767127;81;20968;-41
2022/11/07 02:36:29;;;;;;;38.67;26.07;;;;;;;8.64;72.50;100047.81;1767154;81;20925;-41
2022/11/07 02:38:57;;;;;;;39.92;27.52;;;;;;;8.66;72.57;100048.29;1767175;81;21040;-41
2022/11/07 02:41:33;;;;;;;43.63;27.37;;;;;;;8.67;72.57;100049.29;1767120;81;21084;-41
2022/11/07 02:44:07;;;;;;;41.33;27.65;;;;;;;8.68;72.45;100054.14;1767304;81;21269;-42
2022/11/07 02:46:34;;;;;;;39.60;26.33;;;;;;;8.65;72.43;100044.00;1767231;81;21412;-41
2022/11/07 02:49:01;;;;;;;41.23;27.65;;;;;;;8.61;72.29;100047.13;1766999;81;20924;-41
2022/11/07 02:51:28;;;;;;;40.58;26.60;;;;;;;8.61;72.38;100051.19;1767208;81;21536;-41
2022/11/07 02:53:55;;;;;;;43.23;27.48;;;;;;;8.57;72.43;100056.99;1767068;81;21075;-41
2022/11/07 02:56:22;;;;;;;40.67;27.25;;;;;;;8.53;72.67;100060.92;1767246;81;21798;-41
2022/11/07 02:58:51;;;;;;;40.00;28.27;;;;;;;8.50;72.76;100062.14;1766956;81;21008;-41
2022/11/07 03:01:19;;;;;;;44.42;25.72;;;;;;;8.49;72.97;100064.61;1767206;81;21083;-41
2022/11/07 03:03:49;;;;;;;39.03;26.20;;;;;;;8.55;72.74;100064.66;1767119;81;21488;-41
2022/11/07 03:06:19;;;;;;;37.05;25.85;;;;;;;8.63;72.62;100067.84;1767175;81;21730;-41
2022/11/07 03:08:46;;;;;;;41.35;27.05;;;;;;;8.71;72.57;100065.08;1767082;81;21521;-41
2022/11/07 03:11:13;;;;;;;39.03;26.97;;;;;;;8.76;72.27;100071.43;1766947;81;21467;-41
2022/11/07 03:13:40;;;;;;;41.28;27.37;;;;;;;8.75;72.18;100068.49;1767224;81;21020;-41
2022/11/07 03:16:09;;;;;;;38.42;26.62;;;;;;;8.72;72.20;100068.02;1767141;81;21039;-41
2022/11/07 03:18:37;;;;;;;;;;;;;;;8.73;72.17;100068.81;1769756;81;21116;-41
2022/11/07 03:21:05;;;;;;;35.13;25.08;;;;;;;8.74;71.92;100069.05;1767177;81;20466;-41
2022/11/07 03:23:33;;;;;;;39.78;25.90;;;;;;;8.71;72.10;100069.72;1767081;81;21545;-41
2022/11/07 03:26:02;;;;;;;40.35;28.00;;;;;;;8.75;72.05;100061.17;1767110;81;20936;-41
2022/11/07 03:28:31;;;;;;;39.03;27.45;;;;;;;8.73;72.05;100062.84;1767153;81;21048;-41
2022/11/07 03:31:03;;;;;;;44.10;27.37;;;;;;;8.70;72.05;100056.76;1767143;81;21127;-41
2022/11/07 03:33:30;;;;;;;47.50;30.05;;;;;;;8.71;72.07;100061.61;1767392;81;20976;-42
2022/11/07 03:35:57;;;;;;;36.68;24.65;;;;;;;8.64;72.02;100054.57;1767337;81;20949;-41
2022/11/07 03:38:24;;;;;;;38.25;27.07;;;;;;;8.61;72.14;100054.69;1767349;81;21079;-41
2022/11/07 03:40:52;;;;;;;40.65;27.30;;;;;;;8.61;72.12;100057.94;1767329;81;21024;-41
2022/11/07 03:43:18;;;;;;;44.30;28.95;;;;;;;8.58;72.24;100057.23;1767493;81;21206;-41
2022/11/07 03:45:45;;;;;;;41.83;28.45;;;;;;;8.54;72.34;100053.61;1767271;81;20956;-41
2022/11/07 03:48:13;;;;;;;42.85;29.67;;;;;;;8.51;72.54;100048.31;1767246;81;20905;-41
2022/11/07 03:50:41;;;;;;;39.30;25.92;;;;;;;8.52;72.62;100047.17;1767323;81;21001;-41
2022/11/07 03:53:07;;;;;;;38.40;26.50;;;;;;;8.56;72.45;100048.13;1767409;81;21008;-41
2022/11/07 03:55:34;;;;;;;40.58;28.02;;;;;;;8.66;72.25;100048.29;1767238;81;23257;-41
2022/11/07 03:58:01;;;;;;;42.65;27.55;;;;;;;8.68;72.01;100039.27;1767385;81;21544;-41
2022/11/07 04:00:28;;;;;;;39.05;26.93;;;;;;;8.69;72.09;100040.86;1767278;81;21085;-41
2022/11/07 04:02:55;;;;;;;38.80;26.52;;;;;;;8.66;71.99;100040.97;1767238;81;21104;-41
2022/11/07 04:05:22;;;;;;;38.95;27.35;;;;;;;8.65;72.04;100038.03;1767428;81;21019;-41
2022/11/07 04:07:50;;;;;;;41.55;28.65;;;;;;;8.63;72.10;100044.88;1767294;81;21554;-41
2022/11/07 04:10:17;;;;;;;36.90;25.17;;;;;;;8.64;72.10;100042.41;1767300;81;20944;-41
2022/11/07 04:18:18;;;;;;;40.90;27.22;;;;;;;8.73;71.65;100033.11;1767345;81;21019;-41
2022/11/07 04:20:45;;;;;;;40.35;28.30;;;;;;;8.64;71.88;100030.24;1767219;81;21232;-41
2022/11/07 04:23:12;;;;;;;40.55;27.60;;;;;;;8.59;72.09;100023.69;1758651;81;21040;-41
2022/11/07 04:28:25;;;;;;;39.27;25.88;;;;;;;8.59;72.22;100019.63;1752800;81;21013;-41
2022/11/07 04:30:52;;;;;;;38.40;27.20;;;;;;;8.64;72.08;100018.88;1752737;81;21063;-41
2022/11/07 04:33:19;;;;;;;40.08;26.10;;;;;;;8.66;72.06;100018.00;1752771;81;21126;-41
2022/11/07 04:35:46;;;;;;;42.25;28.52;;;;;;;8.65;72.08;100027.22;1752727;81;20976;-41
2022/11/07 04:38:13;;;;;;;38.67;27.07;;;;;;;8.63;71.98;100017.84;1752644;81;20980;-41
2022/11/07 04:40:40;;;;;;;39.40;26.45;;;;;;;8.56;72.18;100014.89;1752693;81;21597;-41
2022/11/07 04:43:08;;;;;;;35.63;24.43;;;;;;;8.57;72.26;100010.48;1752710;81;21533;-41
2022/11/07 04:45:39;;;;;;;37.60;26.42;;;;;;;8.67;72.21;100016.85;1753069;81;21223;-41
2022/11/07 04:48:07;;;;;;;;;;;;;;;8.77;72.06;100017.02;1755126;81;21513;-41
2022/11/07 04:50:34;;;;;;;40.65;26.93;;;;;;;8.80;71.69;100010.17;1752672;81;20130;-41
2022/11/07 04:53:01;;;;;;;38.88;28.27;;;;;;;8.66;71.83;100018.55;1752640;81;20949;-41
2022/11/07 04:55:30;;;;;;;43.00;25.68;;;;;;;8.65;71.97;100025.08;1752630;81;21037;-42
2022/11/07 04:57:57;;;;;;;35.45;24.63;;;;;;;8.58;72.01;100018.04;1752823;81;21235;-41
2022/11/07 05:00:25;;;;;;;34.90;24.72;;;;;;;8.66;71.90;100023.96;1752525;81;21055;-41
2022/11/07 05:02:52;;;;;;;35.83;24.60;;;;;;;8.75;71.83;100023.89;1752721;81;20976;-41
2022/11/07 05:05:19;;;;;;;35.15;25.60;;;;;;;8.78;71.62;100028.06;1752676;81;20992;-41
2022/11/07 05:07:46;;;;;;;38.75;27.10;;;;;;;8.78;71.54;100026.70;1752830;81;21296;-41
2022/11/07 05:10:27;;;;;;;38.63;26.10;;;;;;;8.76;71.48;100037.64;1752496;81;23223;-41
2022/11/07 05:12:54;;;;;;;38.92;25.45;;;;;;;8.71;71.56;100034.58;1752655;81;21072;-41
2022/11/07 05:15:22;;;;;;;36.80;24.95;;;;;;;8.64;71.60;100038.35;1752788;81;21011;-41
2022/11/07 05:17:48;;;;;;;33.65;23.80;;;;;;;8.60;71.78;100046.89;1752676;81;20972;-41
2022/11/07 05:20:36;;;;;;;38.25;24.20;;;;;;;8.63;71.77;100050.28;1752601;81;21024;-42
2022/11/07 05:23:17;;;;;;;33.02;24.72;;;;;;;8.66;71.72;100052.34;1758235;81;23141;-41
2022/11/07 05:25:49;;;;;;;35.08;24.12;;;;;;;8.65;71.67;100047.50;1767251;81;20960;-41
2022/11/07 05:28:23;;;;;;;38.70;25.12;;;;;;;8.64;71.60;100045.11;1767250;81;21085;-41
2022/11/07 05:30:51;;;;;;;33.95;24.50;;;;;;;8.60;71.60;100056.35;1767125;81;21005;-41
2022/11/07 05:33:17;;;;;;;33.40;23.92;;;;;;;8.57;71.78;100055.08;1767275;81;21036;-41
2022/11/07 05:35:45;;;;;;;31.27;23.05;;;;;;;8.27;71.75;100009.75;1767305;81;21137;-41
2022/11/07 05:38:12;;;;;;;36.10;23.47;;;;;;;8.66;71.63;100059.09;1767381;81;21083;-41
2022/11/07 05:40:40;;;;;;;34.15;24.37;;;;;;;8.70;71.48;100058.11;1767271;81;21031;-41
2022/11/07 05:43:10;;;;;;;34.67;24.20;;;;;;;8.72;71.61;100056.41;1767267;81;21005;-41
2022/11/07 05:45:37;;;;;;;32.63;24.02;;;;;;;8.75;71.58;100059.03;1767500;81;26684;-41
2022/11/07 05:48:08;;;;;;;33.88;23.95;;;;;;;8.77;71.43;100060.27;1767318;81;21232;-41
2022/11/07 05:50:36;;;;;;;33.00;21.68;;;;;;;8.76;71.28;100057.91;1766908;81;20980;-41
2022/11/07 05:53:03;;;;;;;28.70;21.57;;;;;;;8.75;71.18;100059.03;1767266;81;21089;-41
2022/11/07 05:55:31;;;;;;;31.23;22.27;;;;;;;8.79;71.23;100056.69;1767291;81;20968;-41
2022/11/07 05:57:58;;;;;;;33.53;23.20;;;;;;;8.85;71.35;100059.43;1767276;81;21040;-41
2022/11/07 06:00:25;;;;;;;31.95;23.77;;;;;;;8.87;71.17;100061.78;1767445;81;22002;-41
2022/11/07 06:02:59;;;;;;;34.90;23.45;;;;;;;8.87;71.15;100062.58;1767259;81;20928;-41
2022/11/07 06:05:26;;;;;;;30.77;22.93;;;;;;;8.87;71.09;100057.72;1767310;81;21663;-41
2022/11/07 06:07:52;;;;;;;34.63;23.18;;;;;;;8.85;71.05;100062.12;1767220;81;21075;-41
2022/11/07 06:10:19;;;;;;;31.33;21.00;;;;;;;8.83;70.99;100061.66;1767219;81;20996;-41
2022/11/07 06:12:46;;;;;;;30.35;21.02;;;;;;;8.83;70.98;100061.66;1767390;81;21243;-41
2022/11/07 06:15:14;;;;;;;29.98;21.93;;;;;;;8.88;70.84;100064.16;1767153;81;21530;-41
2022/11/07 06:17:41;;;;;;;32.20;21.77;;;;;;;8.87;70.81;100065.28;1767288;81;21012;-41
2022/11/07 06:20:10;;;;;;;32.08;23.73;;;;;;;8.82;70.73;100060.07;1767210;81;21096;-41
2022/11/07 10:17:48;;;;;;;20.92;15.55;;;;;;;9.11;70.78;100021.31;1755405;80;23416;-40
2022/11/07 10:21:00;;;;;;;21.75;17.57;;;;;;;9.27;70.62;100008.75;1749682;81;21051;-40
2022/11/07 10:24:04;;;;;;;22.40;18.05;;;;;;;9.23;69.82;100021.92;1761334;81;21220;-40
2022/11/07 10:26:33;;;;;;;26.93;18.15;;;;;;;9.13;69.34;100009.05;1730901;82;21003;-40
2022/11/07 10:29:15;;;;;;;23.50;17.35;;;;;;;9.03;70.10;100011.38;1761273;81;21600;-40
2022/11/07 10:32:06;;;;;;;18.80;16.40;;;;;;;9.01;69.99;100002.23;1761252;81;20977;-40
2022/11/07 10:34:43;;;;;;;23.85;17.80;;;;;;;9.01;70.12;99994.68;1761141;81;20921;-40
2022/11/07 10:37:10;;;;;;;23.27;18.52;;;;;;;8.94;70.02;99988.48;1761139;81;21226;-40
2022/11/07 10:39:37;;;;;;;23.62;19.02;;;;;;;8.93;70.39;99995.01;1761076;81;21003;-40
2022/11/07 10:42:21;;;;;;;24.67;17.85;;;;;;;8.93;70.63;99986.90;1761109;81;20937;-41
2022/11/07 10:44:48;;;;;;;24.50;18.40;;;;;;;8.95;71.14;99992.77;1761067;81;21031;-40
2022/11/07 10:47:21;;;;;;;26.17;18.20;;;;;;;9.10;70.91;99991.36;1761192;81;20973;-40
2022/11/07 10:50:01;;;;;;;23.60;18.45;;;;;;;9.14;70.47;99984.16;1760788;81;21140;-41
2022/11/07 10:52:29;;;;;;;25.72;20.65;;;;;;;9.17;70.56;99980.77;1760881;81;21024;-40
2022/11/07 10:55:10;;;;;;;24.67;20.32;;;;;;;9.25;70.51;99988.55;1761183;81;20976;-40
2022/11/07 10:57:37;;;;;;;26.33;19.87;;;;;;;9.25;69.99;99981.78;1760699;81;21032;-41
2022/11/07 11:00:21;;;;;;;26.15;18.57;;;;;;;9.25;70.34;99973.67;1761328;81;21474;-40
2022/11/07 11:02:48;;;;;;;22.40;18.57;;;;;;;9.32;69.79;99972.57;1746418;81;21795;-41
2022/11/07 11:05:28;;;;;;;26.15;19.45;;;;;;;9.41;69.46;99970.55;1743869;81;21497;-40
2022/11/07 11:07:57;;;;;;;23.90;19.92;;;;;;;9.45;68.98;99968.74;1761217;81;21011;-41
2022/11/07 11:10:29;;;;;;;27.10;19.23;;;;;;;9.50;69.21;99963.11;1744079;81;21518;-41
2022/11/07 11:12:57;;;;;;;24.92;17.65;;;;;;;9.68;69.26;99965.85;1761050;81;20985;-41
2022/11/07 11:15:26;;;;;;;23.77;17.82;;;;;;;10.00;68.56;99966.28;1761173;81;20961;-40
2022/11/07 11:18:02;;;;;;;25.75;18.55;;;;;;;10.32;66.54;99944.22;1761210;81;21012;-41
2022/11/07 11:20:39;;;;;;;25.30;18.20;;;;;;;10.48;65.14;99957.05;1761234;81;21016;-40
2022/11/07 11:23:16;;;;;;;23.42;17.95;;;;;;;10.42;64.53;99953.79;1760769;80;21475;-41
2022/11/07 11:25:47;;;;;;;26.12;17.92;;;;;;;10.28;64.69;99957.44;1761334;80;21020;-41
2022/11/07 11:28:32;;;;;;;24.90;18.07;;;;;;;10.19;65.01;99956.79;1761495;80;21183;-40
2022/11/07 11:31:04;;;;;;;26.12;19.20;;;;;;;10.10;65.34;99958.81;1761181;81;21530;-41
2022/11/07 11:33:39;;;;;;;23.77;17.25;;;;;;;10.02;65.66;99954.52;1761800;80;21589;-40
2022/11/07 11:36:11;;;;;;;21.02;16.85;;;;;;;9.97;65.67;99952.04;1761231;81;21550;-41
2022/11/07 11:38:39;;;;;;;23.75;17.27;;;;;;;9.97;65.59;99957.45;1761390;81;20930;-40
2022/11/07 11:41:17;;;;;;;22.93;17.82;;;;;;;9.97;65.29;99953.98;1761119;80;21231;-41
2022/11/07 11:43:49;;;;;;;24.50;18.15;;;;;;;9.92;65.34;99952.27;1761170;81;21507;-41
2022/11/07 11:46:30;;;;;;;23.62;17.40;;;;;;;9.89;65.90;99952.97;1761108;80;21490;-40
2022/11/07 11:49:02;;;;;;;22.70;17.55;;;;;;;9.89;65.66;99948.90;1761053;81;21037;-41
2022/11/07 11:51:44;;;;;;;23.57;18.25;;;;;;;9.82;65.87;99950.61;1760810;80;21525;-41
2022/11/07 11:54:14;;;;;;;24.18;17.50;;;;;;;9.76;66.55;99950.05;1761348;80;21058;-41
2022/11/07 11:56:54;;;;;;;20.68;16.55;;;;;;;9.80;66.43;99953.65;1761076;81;21029;-40
2022/11/07 12:00:01;;;;;;;21.17;17.05;;;;;;;9.84;66.35;99951.84;1761215;80;20976;-41
2022/11/07 12:02:53;;;;;;;21.85;17.10;;;;;;;9.86;66.71;99944.17;1760979;80;20989;-41
2022/11/07 12:05:59;;;;;;;21.42;17.05;;;;;;;9.91;66.44;99939.88;1760923;81;21517;-41
2022/11/07 12:08:56;;;;;;;22.25;17.45;;;;;;;9.96;66.41;99936.16;1761225;81;21228;-41
2022/11/07 12:11:53;;;;;;;20.62;15.83;;;;;;;9.98;66.06;99933.31;1760812;80;20981;-41
2022/11/07 12:14:40;;;;;;;27.27;18.62;;;;;;;9.97;65.98;99933.08;1761084;81;21032;-41
2022/11/07 12:17:22;;;;;;;21.23;16.90;;;;;;;10.00;66.02;99935.69;1761125;80;21004;-41
2022/11/07 12:20:17;;;;;;;20.20;16.20;;;;;;;10.03;65.57;99928.22;1761238;81;21811;-41
2022/11/07 12:23:06;;;;;;;20.08;16.30;;;;;;;10.04;65.44;99926.53;1761121;80;21128;-41
2022/11/07 12:25:57;;;;;;;23.22;17.23;;;;;;;10.06;65.43;99923.50;1755433;81;21518;-41
2022/11/07 12:28:47;;;;;;;20.40;16.12;;;;;;;10.09;65.42;99930.14;1761237;80;21576;-41
2022/11/07 12:31:32;;;;;;;22.13;16.15;;;;;;;10.10;65.12;99924.95;1740319;81;20897;-41
2022/11/07 12:34:28;;;;;;;19.17;15.70;;;;;;;10.13;65.06;99917.48;1760930;81;21032;-41
2022/11/07 12:37:23;;;;;;;20.23;15.45;;;;;;;10.15;65.16;99916.58;1761184;81;21081;-41
2022/11/07 12:40:24;;;;;;;22.07;16.32;;;;;;;10.17;64.97;99921.11;1760926;80;21087;-40
2022/11/07 12:43:21;;;;;;;18.23;14.15;;;;;;;10.15;64.90;99913.88;1761016;80;21529;-41
2022/11/07 12:46:15;;;;;;;20.77;14.98;;;;;;;10.17;64.72;99915.69;1760917;81;21012;-41
2022/11/07 12:49:02;;;;;;;17.10;14.85;;;;;;;10.21;64.32;99905.20;1761385;81;21585;-41
2022/11/07 12:51:59;;;;;;;18.98;14.93;;;;;;;10.24;63.74;99903.72;1713166;80;21259;-41
2022/11/07 12:54:47;;;;;;;19.37;14.73;;;;;;;10.23;63.34;99903.48;1761324;81;21451;-41
2022/11/07 12:57:19;;;;;;;21.52;13.98;;;;;;;10.17;63.16;99905.64;1761226;81;20953;-41
2022/11/07 13:00:06;;;;;;;18.48;13.55;;;;;;;10.14;63.12;99904.16;1761315;81;21004;-41
2022/11/07 13:02:59;;;;;;;19.07;13.65;;;;;;;10.13;63.33;99902.58;1761185;81;21470;-41
2022/11/07 13:06:01;;;;;;;19.45;14.60;;;;;;;10.10;63.11;99900.00;1761251;81;21341;-41
2022/11/07 13:08:46;;;;;;;19.37;13.85;;;;;;;10.02;63.12;99894.16;1760975;81;20993;-41
2022/11/07 13:11:43;;;;;;;23.55;14.95;;;;;;;9.96;63.28;99892.25;1760654;80;20981;-41
2022/11/07 13:14:35;;;;;;;17.15;13.05;;;;;;;9.90;63.13;99893.61;1755664;81;21020;-41
2022/11/07 13:17:18;;;;;;;18.57;13.43;;;;;;;9.95;63.53;99898.00;1760918;80;21023;-41
2022/11/07 13:20:07;;;;;;;24.00;14.47;;;;;;;10.04;63.34;99899.45;1760655;81;21497;-40
2022/11/07 13:22:37;;;;;;;16.45;12.82;;;;;;;10.13;63.14;99893.09;1760630;81;20928;-41
2022/11/07 13:25:19;;;;;;;20.20;14.95;;;;;;;10.16;62.75;99896.52;1760765;81;20959;-41
2022/11/07 13:27:59;;;;;;;18.25;14.45;;;;;;;10.16;62.37;99890.55;1760746;81;21580;-41
2022/11/07 13:30:36;;;;;;;17.42;13.25;;;;;;;10.16;62.23;99891.90;1760764;81;21461;-41
2022/11/07 13:33:04;;;;;;;17.37;13.35;;;;;;;10.14;62.16;99898.74;1760032;81;21260;-41
2022/11/07 13:35:35;;;;;;;17.98;12.93;;;;;;;10.11;62.24;99894.02;1760622;81;20940;-40
2022/11/07 13:38:17;;;;;;;17.45;13.43;;;;;;;10.09;62.56;99888.94;1760702;81;20905;-41
2022/11/07 13:40:51;;;;;;;20.25;14.45;;;;;;;10.10;62.77;99887.81;1760900;81;21003;-41
2022/11/07 13:43:57;;;;;;;17.73;13.40;;;;;;;10.12;63.02;99884.17;1735308;81;21043;-41
2022/11/07 13:46:38;;;;;;;18.70;15.13;;;;;;;10.13;62.79;99879.55;1760669;81;21225;-41
2022/11/07 13:49:20;;;;;;;19.00;14.68;;;;;;;10.10;63.28;99882.95;1751559;81;21349;-41
2022/11/07 13:51:50;;;;;;;19.73;15.90;;;;;;;10.15;63.41;99881.36;1760799;81;20983;-41
2022/11/07 13:54:46;;;;;;;14.60;11.63;;;;;;;10.20;63.39;99879.80;1760995;81;21434;-41
2022/11/07 13:57:34;;;;;;;25.88;17.23;;;;;;;10.21;63.59;99880.02;1760679;81;21501;-41
2022/11/07 14:00:09;;;;;;;23.87;17.42;;;;;;;10.20;63.75;99877.09;1760908;81;21124;-41
2022/11/07 14:02:57;;;;;;;21.75;16.32;;;;;;;10.17;63.83;99879.11;1760887;81;20967;-41
2022/11/07 14:05:33;;;;;;;26.68;17.77;;;;;;;10.15;63.85;99880.01;1760820;81;20999;-41
2022/11/07 14:08:19;;;;;;;22.60;18.05;;;;;;;10.09;63.70;99875.95;1760856;81;20998;-41
2022/11/07 14:10:48;;;;;;;22.62;18.02;;;;;;;10.02;63.89;99879.27;1761023;81;21528;-41
2022/11/07 14:13:33;;;;;;;25.10;18.23;;;;;;;9.98;63.95;99871.58;1761118;81;21185;-41
2022/11/07 14:16:04;;;;;;;23.57;18.23;;;;;;;9.92;63.97;99875.67;1760692;81;20877;-41
2022/11/07 14:18:46;;;;;;;24.02;18.67;;;;;;;9.87;64.04;99871.84;1760407;80;20972;-41
2022/11/07 14:21:21;;;;;;;23.73;16.42;;;;;;;9.80;64.11;99876.48;1760454;81;21573;-41
2022/11/07 14:23:49;;;;;;;23.95;16.80;;;;;;;9.79;64.29;99878.16;1760639;81;21102;-41
2022/11/07 14:26:27;;;;;;;21.30;17.07;;;;;;;9.82;64.27;99880.20;1760455;81;21223;-41
2022/11/07 14:28:56;;;;;;;26.17;17.42;;;;;;;9.81;64.30;99884.04;1760662;81;21029;-41
2022/11/07 14:31:31;;;;;;;22.60;17.20;;;;;;;9.74;64.20;99879.19;1760493;81;21574;-41
2022/11/07 14:34:06;;;;;;;25.10;18.32;;;;;;;9.71;64.37;99889.35;1754805;81;20976;-41
2022/11/07 14:36:33;;;;;;;26.12;18.07;;;;;;;9.67;64.16;99891.73;1754673;81;21521;-45
2022/11/07 14:39:04;;;;;;;24.35;17.42;;;;;;;9.59;64.23;99885.29;1760531;81;21513;-45
2022/11/07 17:58:12;;;;;;;21.37;16.27;;;;;;;7.93;69.55;99880.36;1755942;80;22275;-39
2022/11/07 18:00:41;;;;;;;22.48;17.77;;;;;;;8.04;68.52;99881.52;1762891;81;20908;-40
2022/11/07 18:03:07;;;;;;;25.50;17.70;;;;;;;8.00;68.31;99883.30;1758828;81;21239;-40
2022/11/07 18:05:36;;;;;;;25.82;17.82;;;;;;;7.96;68.04;99883.73;1728428;82;21424;-39
2022/11/07 18:08:04;;;;;;;23.05;18.05;;;;;;;7.94;67.83;99884.61;1758678;81;20998;-40
2022/11/07 18:10:31;;;;;;;28.02;18.12;;;;;;;7.91;67.70;99883.93;1728797;83;21002;-39
2022/11/07 18:12:58;;;;;;;25.12;17.85;;;;;;;7.91;67.54;99887.19;1758829;81;20943;-39
2022/11/07 18:15:25;;;;;;;26.82;16.87;;;;;;;7.86;67.49;99885.48;1728509;83;21141;-39
2022/11/07 18:17:52;;;;;;;28.00;18.27;;;;;;;7.82;67.46;99891.30;1758675;81;21592;-40
2022/11/07 18:20:19;;;;;;;27.75;18.17;;;;;;;7.79;67.50;99890.03;1728966;83;20974;-39
2022/11/07 18:22:47;;;;;;;26.52;16.37;;;;;;;7.76;67.33;99887.20;1758834;81;20915;-40
2022/11/07 18:25:14;;;;;;;25.00;16.65;;;;;;;7.71;67.32;99886.05;1728822;83;20990;-40
2022/11/07 18:27:41;;;;;;;25.05;16.75;;;;;;;7.75;67.16;99888.31;1758868;81;22056;-40
2022/11/07 18:30:11;;;;;;;23.73;17.02;;;;;;;7.73;67.22;99887.31;1728592;83;21540;-40
2022/11/07 18:32:38;;;;;;;25.20;17.27;;;;;;;7.73;67.25;99893.27;1759327;81;21006;-40
2022/11/07 18:35:05;;;;;;;22.95;16.75;;;;;;;7.72;67.11;99887.64;1728705;83;21547;-40
2022/11/07 18:37:33;;;;;;;25.68;18.73;;;;;;;7.67;67.08;99894.02;1758805;81;21023;-40
2022/11/07 18:39:59;;;;;;;24.52;17.87;;;;;;;7.64;66.98;99897.38;1728515;83;21241;-40
2022/11/07 18:42:27;;;;;;;26.50;18.25;;;;;;;7.61;67.07;99899.91;1758516;81;20979;-40
2022/11/07 18:44:56;;;;;;;27.42;18.57;;;;;;;7.55;67.04;99898.55;1728585;83;21001;-40
2022/11/07 18:47:23;;;;;;;24.77;17.65;;;;;;;7.53;66.95;99906.16;1758431;81;21413;-40
2022/11/07 18:49:51;;;;;;;24.10;17.98;;;;;;;7.53;66.96;99911.00;1728668;83;21065;-40
2022/11/07 18:52:18;;;;;;;25.40;18.17;;;;;;;7.53;66.90;99911.55;1758638;81;23142;-40
2022/11/07 18:54:46;;;;;;;26.50;18.40;;;;;;;7.49;67.12;99904.67;1728479;83;20991;-40
2022/11/07 18:57:13;;;;;;;25.02;18.45;;;;;;;7.46;67.22;99907.21;1743125;81;20995;-40
2022/11/07 18:59:40;;;;;;;27.80;18.92;;;;;;;7.43;67.22;99908.67;1724547;83;20921;-40
2022/11/07 19:02:08;;;;;;;27.80;19.42;;;;;;;7.36;67.37;99907.02;1724600;83;21090;-40
2022/11/07 19:04:34;;;;;;;25.35;18.32;;;;;;;7.35;67.58;99904.91;1724498;83;21222;-40
2022/11/07 19:07:01;;;;;;;25.40;17.55;;;;;;;7.38;67.50;99904.80;1724505;83;21004;-40
2022/11/07 19:09:31;;;;;;;29.85;18.70;;;;;;;7.41;67.35;99913.58;1724676;83;21556;-40